AirNav   ProFlight Series 2 Aviation Headset
 
 438 users online  

31FL Forever Florida Airport
Melbourne, Florida, USA

GOING TO MELBOURNE?


FAA INFORMATION EFFECTIVE 18 JUNE 2020

Location

FAA Identifier: 31FL
Lat/Long: 28-02-36.0690N 081-01-09.2270W
28-02.601150N 081-01.153783W
28.0433525,-81.0192297
(estimated)
Elevation: 54 ft. / 16 m (estimated)
Variation: 03W (1985)
From city: 22 miles W of MELBOURNE, FL
Time zone: UTC -4 (UTC -5 during Standard Time)
Zip code: 34773

Airport Operations

Airport use: Private use. Permission required prior to landing
Activation date: 06/1981
Control tower: no
ARTCC: JACKSONVILLE CENTER
FSS: SAINT PETERSBURG FLIGHT SERVICE STATION
Attendance: UNATNDD
Wind indicator: yes
Segmented circle: no

Nearby radio navigation aids

VOR radial/distance  VOR name  Freq  Var
MLBr267/20.7MELBOURNE VOR/DME110.0007W
ORLr151/34.3ORLANDO VORTAC112.2000E
TRVr315/35.6TREASURE VORTAC117.3007W

Airport Services

Runway Information

Runway 9/27

Dimensions: 3000 x 150 ft. / 914 x 46 m
Surface: turf
RUNWAY 9  RUNWAY 27
Traffic pattern: leftleft

Airport Ownership and Management from official FAA records

Ownership: Privately-owned
Owner: ALLEN BROUSARD CONSERVANCY INC
4755 N. KENANVILLE RD
ST CLOUD, FL 34773
Phone (407) 892-5010
Manager: CYNTHIA DAVIS
4755 N. KENANVILLE RD
ST CLOUD, FL 34773
Phone (407) 892-5010

Additional Remarks

FOR CD CTC ORLANDO APCH AT 407-852-7553.

Instrument Procedures

There are no published instrument procedures at 31FL.

Some nearby airports with instrument procedures:

KMLB - Melbourne International Airport (20 nm E)
KCOF - Patrick Air Force Base (25 nm NE)
KCOI - Merritt Island Airport (25 nm NE)
KISM - Kissimmee Gateway Airport (27 nm NW)
KMCO - Orlando International Airport (28 nm NW)
 
Loc | Ops | Rwys | IFR | FBO | Links
Com | Nav | Svcs | Stats | Notes


 
Area around 31FL (Forever Florida Airport)
 
Road maps at: MapQuest Bing Google
 
Aerial photo
WARNING: Photo may not be current or correct
Aerial photo of 31FL (Forever Florida Airport)
Photo courtesy of Skylar Schoemig

Do you have a better or more recent aerial photo of Forever Florida Airport that you would like to share? If so, please send us your photo.

 
Sectional chart

 
Airport distance calculator
Flying to Forever Florida Airport? Find the distance to fly.

From to 31FL

Sunrise and sunset
Times for 15-Jul-2020
 Local
(UTC-4)
 Zulu
(UTC)
Morning civil twilight06:1310:13
Sunrise06:3910:39
Sunset20:2100:21
Evening civil twilight20:4700:47

Current date and time
Zulu (UTC)  15-Jul-2020 10:54:56
Local (UTC-4)  15-Jul-2020 06:54:56
 
METAR
KMLB 
20nm E 
150953Z 00000KT 10SM CLR 24/24 A3002 RMK AO2 SLP164 T02440239
KCOF 
25nm NE 
150956Z AUTO 24004KT 10SM CLR 26/22 A3001 RMK AO2 SLP167 T02630219 $
KISM 
26nm NW 
150956Z AUTO 00000KT 10SM CLR 25/24 A3004 RMK AO2 SLP171 T02500244 PNO $
KMCO 
28nm NW 
150953Z 21003KT 10SM FEW030 FEW250 25/24 A3003 RMK AO2 SLP166 T02500239
KAGR 
29nm SW 
150958Z AUTO 00000KT 10SM CLR 25/23 A3002 RMK AO2 SLP167 T02450233 $
KX26 
31nm SE 
151030Z AUTO 00000KT 10SM CLR 24/23 A3003 RMK AO2 T02400229
KTIX 
31nm NE 
150048Z 30006KT 7SM SCT090 27/21 A3004
KX07 
33nm W 
150535Z AUTO 00000KT 10SM CLR 26/25 A3008 RMK A01
KORL 
35nm NW 
150953Z AUTO 00000KT 10SM CLR 27/24 A3003 RMK AO2 SLP171 T02670239
KXMR 
36nm NE 
150956Z AUTO 00000KT 10SM CLR 24/22 A3001 RMK AO2 SLP165 T02410223 $
TAF
KMLB 
20nm E 
150533Z 1506/1606 VRB03KT P6SM FEW040 SCT250 FM151600 05006KT P6SM SCT035 SCT250 FM151800 09010KT P6SM VCTS SCT040CB FM160000 VRB04KT P6SM FEW040 SCT250
NOTAMs
Click for the latest NOTAMs
NOTAMs are issued by the DoD/FAA and will open in a separate window not controlled by AirNav.

 

 
 

Would you like to see your business listed on this page?

 If your business provides an interesting product or service to pilots, flight crews, aircraft, or users of the Forever Florida Airport, you should consider listing it here.  To start the listing process, click on the button below
 
Add a business
 

Other Pages about Forever Florida Airport

Update a link
 
Copyright © AirNav, LLC. All rights reserved. Privacy Policy  Contact